createdAt,value
2022-11-30T00:01:23.070Z,15.03
2022-11-30T00:03:54.923Z,14.87
2022-11-30T00:06:25.118Z,12.33
2022-11-30T00:08:56.957Z,15.07
2022-11-30T00:11:26.813Z,15.20
2022-11-30T00:13:54.032Z,14.27
2022-11-30T00:16:21.233Z,17.37
2022-11-30T00:18:48.212Z,13.70
2022-11-30T00:21:15.799Z,13.07
2022-11-30T00:23:45.043Z,13.57
2022-11-30T00:26:15.696Z,13.83
2022-11-30T00:28:45.214Z,12.77
2022-11-30T00:31:15.442Z,13.70
2022-11-30T00:33:43.051Z,12.60
2022-11-30T00:36:16.618Z,13.03
2022-11-30T00:38:44.038Z,12.67
2022-11-30T00:41:11.465Z,11.23
2022-11-30T00:43:38.432Z,12.13
2022-11-30T00:46:06.130Z,12.90
2022-11-30T00:48:33.895Z,11.57
2022-11-30T00:51:01.095Z,13.47
2022-11-30T00:53:27.990Z,11.27
2022-11-30T00:55:55.072Z,11.80
2022-11-30T00:58:22.000Z,10.83
2022-11-30T01:00:49.099Z,12.30
2022-11-30T01:03:16.157Z,12.80
2022-11-30T01:05:46.353Z,13.20
2022-11-30T01:08:14.074Z,12.07
2022-11-30T01:10:43.036Z,12.47
2022-11-30T01:13:12.787Z,12.10
2022-11-30T01:15:43.651Z,12.90
2022-11-30T01:18:11.318Z,13.10
2022-11-30T01:20:44.281Z,11.80
2022-11-30T01:23:11.782Z,13.53
2022-11-30T01:25:39.346Z,12.90
2022-11-30T01:28:06.352Z,12.90
2022-11-30T01:30:33.326Z,11.97
2022-11-30T01:33:04.814Z,12.40
2022-11-30T01:35:31.801Z,12.73
2022-11-30T01:37:58.675Z,12.23
2022-11-30T01:40:25.923Z,11.13
2022-11-30T01:42:52.805Z,12.07
2022-11-30T01:45:19.702Z,11.80
2022-11-30T01:47:55.048Z,13.10
2022-11-30T01:50:34.580Z,11.47
2022-11-30T01:53:03.460Z,13.60
2022-11-30T01:55:36.355Z,12.57
2022-11-30T01:58:15.619Z,13.20
2022-11-30T02:00:46.354Z,10.70
2022-11-30T02:03:28.112Z,12.57
2022-11-30T02:05:55.257Z,12.47
2022-11-30T02:08:22.909Z,12.33
2022-11-30T02:10:54.524Z,12.53
2022-11-30T02:13:54.838Z,12.40
2022-11-30T02:16:52.360Z,12.47
2022-11-30T02:19:56.805Z,11.90
2022-11-30T02:23:24.234Z,12.60
2022-11-30T02:26:24.186Z,14.00
2022-11-30T02:29:25.665Z,16.93
2022-11-30T02:32:04.906Z,11.73
2022-11-30T02:34:34.856Z,13.53
2022-11-30T02:37:03.553Z,14.17
2022-11-30T02:39:30.549Z,13.17
2022-11-30T02:41:57.439Z,13.73
2022-11-30T02:44:25.401Z,13.63
2022-11-30T02:47:12.427Z,13.37
2022-11-30T02:49:56.656Z,11.03
2022-11-30T02:52:27.803Z,11.83
2022-11-30T02:55:01.363Z,10.73
2022-11-30T02:57:28.234Z,11.13
2022-11-30T02:59:55.906Z,10.37
2022-11-30T03:02:22.868Z,10.50
2022-11-30T03:04:49.780Z,10.93
2022-11-30T03:07:16.804Z,12.43
2022-11-30T03:09:43.838Z,13.00
2022-11-30T03:12:10.753Z,11.40
2022-11-30T03:14:37.635Z,11.77
2022-11-30T03:17:05.665Z,10.60
2022-11-30T03:19:33.102Z,11.10
2022-11-30T03:22:00.412Z,11.63
2022-11-30T03:24:27.706Z,11.23
2022-11-30T03:26:54.591Z,10.90
2022-11-30T03:29:21.505Z,11.47
2022-11-30T03:31:48.390Z,10.93
2022-11-30T03:34:15.303Z,11.07
2022-11-30T03:36:42.177Z,11.23
2022-11-30T03:39:09.612Z,11.37
2022-11-30T03:41:36.552Z,11.70
2022-11-30T03:44:03.514Z,12.07
2022-11-30T03:46:30.600Z,12.03
2022-11-30T03:48:57.570Z,11.33
2022-11-30T03:51:24.446Z,11.90
2022-11-30T03:53:51.360Z,14.17
2022-11-30T03:56:18.352Z,11.47
2022-11-30T03:58:45.262Z,11.63
2022-11-30T04:01:16.949Z,10.97
2022-11-30T04:03:44.229Z,10.63
2022-11-30T04:06:12.808Z,11.77
2022-11-30T04:08:40.563Z,10.80
2022-11-30T04:11:08.312Z,11.60
2022-11-30T04:13:37.666Z,11.27
2022-11-30T04:16:05.936Z,11.73
2022-11-30T04:18:34.730Z,10.30
2022-11-30T04:21:02.072Z,9.90
2022-11-30T04:23:35.784Z,10.93
2022-11-30T04:26:04.892Z,10.93
2022-11-30T04:28:31.925Z,11.47
2022-11-30T04:31:00.888Z,11.80
2022-11-30T04:33:28.377Z,12.00
2022-11-30T04:35:59.151Z,11.23
2022-11-30T04:38:27.382Z,11.30
2022-11-30T04:40:55.113Z,11.60
2022-11-30T04:43:23.417Z,10.20
2022-11-30T04:45:50.898Z,10.33
2022-11-30T04:48:18.894Z,10.40
2022-11-30T04:50:46.058Z,10.63
2022-11-30T04:53:13.059Z,10.10
2022-11-30T04:55:40.004Z,12.03
2022-11-30T04:58:07.779Z,11.83
2022-11-30T05:00:35.806Z,10.53
2022-11-30T05:03:02.856Z,10.67
2022-11-30T05:05:29.941Z,10.53
2022-11-30T05:07:59.261Z,10.80
2022-11-30T05:10:27.866Z,12.23
2022-11-30T05:12:56.632Z,12.73
2022-11-30T05:15:23.540Z,13.50
2022-11-30T05:17:50.436Z,13.67
2022-11-30T05:20:17.551Z,13.77
2022-11-30T05:22:44.445Z,12.50
2022-11-30T05:25:11.507Z,13.10
2022-11-30T05:27:38.492Z,15.20
2022-11-30T05:30:06.314Z,13.70
2022-11-30T05:32:33.250Z,13.30
2022-11-30T05:35:00.471Z,13.37
2022-11-30T05:37:27.469Z,12.80
2022-11-30T05:39:54.343Z,12.03
2022-11-30T05:42:21.737Z,12.63
2022-11-30T05:44:48.875Z,13.80
2022-11-30T05:47:16.845Z,12.33
2022-11-30T05:49:43.813Z,11.57
2022-11-30T05:52:11.227Z,12.10
2022-11-30T05:54:38.127Z,11.73
2022-11-30T05:57:05.507Z,12.00
2022-11-30T05:59:32.546Z,11.53
2022-11-30T06:01:59.541Z,11.70
2022-11-30T06:04:26.615Z,12.70
2022-11-30T06:06:55.867Z,13.83
2022-11-30T06:09:23.420Z,13.00
2022-11-30T06:11:50.831Z,12.93
2022-11-30T06:14:18.210Z,13.97
2022-11-30T06:16:46.064Z,11.10
2022-11-30T06:19:13.033Z,11.17
2022-11-30T06:21:39.932Z,12.63
2022-11-30T06:24:07.384Z,12.70
2022-11-30T06:26:34.282Z,14.80
2022-11-30T06:29:01.175Z,18.77
2022-11-30T06:31:28.155Z,19.50
2022-11-30T06:33:59.296Z,17.70
2022-11-30T06:36:28.949Z,13.60
2022-11-30T06:39:01.210Z,11.83
2022-11-30T06:41:28.182Z,11.10
2022-11-30T06:43:55.096Z,14.27
2022-11-30T06:46:22.328Z,21.53
2022-11-30T06:48:50.848Z,18.40
2022-11-30T06:51:18.479Z,18.83
2022-11-30T06:53:45.832Z,15.53
2022-11-30T06:56:13.159Z,14.87
2022-11-30T06:58:41.259Z,13.80
2022-11-30T07:01:12.970Z,14.80
2022-11-30T07:03:41.819Z,14.60
2022-11-30T07:06:11.158Z,15.90
2022-11-30T07:08:38.771Z,15.57
2022-11-30T07:11:07.596Z,15.10
2022-11-30T07:13:34.587Z,14.87
2022-11-30T07:16:07.627Z,13.73
2022-11-30T07:18:34.970Z,12.07
2022-11-30T07:21:04.363Z,13.83
2022-11-30T07:23:55.853Z,14.00
2022-11-30T07:26:25.048Z,14.20
2022-11-30T07:28:58.259Z,14.87
2022-11-30T07:31:28.980Z,19.40
2022-11-30T07:33:58.214Z,21.03
2022-11-30T07:36:26.805Z,20.97
2022-11-30T07:38:53.700Z,20.20
2022-11-30T07:41:20.605Z,25.40
2022-11-30T07:43:47.504Z,25.47
2022-11-30T07:46:15.724Z,21.03
2022-11-30T07:48:44.334Z,16.60
2022-11-30T07:51:15.922Z,15.67
2022-11-30T07:53:43.363Z,14.57
2022-11-30T07:56:16.665Z,14.17
2022-11-30T07:58:43.904Z,14.43
2022-11-30T08:01:15.459Z,14.77
2022-11-30T08:03:42.534Z,14.60
2022-11-30T08:06:12.679Z,17.17
2022-11-30T08:08:43.203Z,16.43
2022-11-30T08:11:14.805Z,15.00
2022-11-30T08:13:42.553Z,15.40
2022-11-30T08:16:16.535Z,16.03
2022-11-30T08:18:44.054Z,14.77
2022-11-30T08:21:14.067Z,14.43
2022-11-30T08:23:44.684Z,14.17
2022-11-30T08:26:18.470Z,13.23
2022-11-30T08:28:47.577Z,13.50
2022-11-30T08:31:27.846Z,12.67
2022-11-30T08:33:57.524Z,12.10
2022-11-30T08:36:27.071Z,13.10
2022-11-30T08:38:54.340Z,13.73
2022-11-30T08:41:22.539Z,13.93
2022-11-30T08:43:50.277Z,14.07
2022-11-30T08:54:46.618Z,15.00
2022-11-30T08:57:19.584Z,15.67
2022-11-30T08:59:47.218Z,15.20
2022-11-30T09:02:17.932Z,17.53
2022-11-30T09:04:48.859Z,20.80
2022-11-30T09:07:16.111Z,17.57
2022-11-30T09:09:43.051Z,14.97
2022-11-30T09:12:09.906Z,15.93
2022-11-30T09:14:37.159Z,15.50
2022-11-30T09:17:04.185Z,14.47
2022-11-30T09:19:31.134Z,13.23
2022-11-30T09:21:58.056Z,13.70
2022-11-30T09:24:24.941Z,13.63
2022-11-30T09:26:55.750Z,16.00
2022-11-30T09:29:22.796Z,15.10
2022-11-30T09:31:49.708Z,14.87
2022-11-30T09:34:16.676Z,14.00
2022-11-30T09:36:43.575Z,12.03
2022-11-30T09:39:12.845Z,12.20
2022-11-30T09:42:10.941Z,14.17
2022-11-30T09:44:59.583Z,12.17
2022-11-30T09:48:12.108Z,12.73
2022-11-30T09:50:44.148Z,11.67
2022-11-30T09:53:38.696Z,10.83
2022-11-30T09:56:26.053Z,13.67
2022-11-30T09:59:21.128Z,14.37
2022-11-30T10:01:52.081Z,14.60
2022-11-30T10:04:29.387Z,12.20
2022-11-30T10:07:23.711Z,12.63
2022-11-30T10:10:33.319Z,11.40
2022-11-30T10:13:30.905Z,15.60
2022-11-30T10:16:25.748Z,16.73
2022-11-30T10:19:26.030Z,14.07
2022-11-30T10:22:27.787Z,24.63
2022-11-30T10:25:19.313Z,22.13
2022-11-30T10:28:12.717Z,22.90
2022-11-30T10:30:49.554Z,22.50
2022-11-30T10:33:19.971Z,19.97
2022-11-30T10:35:52.680Z,16.87
2022-11-30T10:38:27.965Z,14.90
2022-11-30T10:41:11.755Z,19.23
2022-11-30T10:43:48.267Z,14.03
2022-11-30T10:46:28.512Z,13.00
2022-11-30T10:49:04.172Z,11.03
2022-11-30T10:51:33.874Z,14.87
2022-11-30T10:54:01.506Z,13.77
2022-11-30T10:56:28.476Z,10.60
2022-11-30T10:59:10.775Z,12.43
2022-11-30T11:01:41.135Z,13.90
2022-11-30T11:04:16.446Z,10.93
2022-11-30T11:06:46.409Z,12.70
2022-11-30T11:09:46.931Z,12.53
2022-11-30T11:12:28.804Z,13.33
2022-11-30T11:15:17.845Z,13.77
2022-11-30T11:17:44.771Z,13.93
2022-11-30T11:20:35.915Z,14.97
2022-11-30T11:23:04.510Z,10.53
2022-11-30T11:25:37.402Z,13.40
2022-11-30T11:28:14.872Z,10.43
2022-11-30T11:30:42.259Z,16.50
2022-11-30T11:33:12.143Z,11.27
2022-11-30T11:35:40.486Z,15.33
2022-11-30T11:38:28.518Z,16.00
2022-11-30T11:41:03.221Z,15.43
2022-11-30T11:43:33.338Z,16.13
2022-11-30T11:46:13.206Z,14.20
2022-11-30T11:48:47.840Z,16.90
2022-11-30T11:51:15.051Z,14.63
2022-11-30T11:53:53.992Z,12.57
2022-11-30T11:56:28.798Z,10.83
2022-11-30T11:58:59.771Z,11.03
2022-11-30T12:02:03.240Z,12.17
2022-11-30T12:04:54.636Z,10.03
2022-11-30T12:07:33.182Z,11.50
2022-11-30T12:10:53.199Z,11.87
2022-11-30T12:13:23.923Z,9.27
2022-11-30T12:16:11.837Z,11.30
2022-11-30T12:18:59.345Z,14.33
2022-11-30T12:21:56.836Z,16.00
2022-11-30T12:25:18.631Z,13.53
2022-11-30T12:28:18.029Z,11.37
2022-11-30T12:31:10.681Z,12.60
2022-11-30T12:34:18.479Z,15.27
2022-11-30T12:37:17.719Z,11.67
2022-11-30T12:39:59.267Z,12.07
2022-11-30T12:42:54.515Z,13.13
2022-11-30T12:45:36.256Z,13.53
2022-11-30T12:48:48.229Z,12.57
2022-11-30T12:51:40.984Z,11.27
2022-11-30T12:54:36.101Z,12.73
2022-11-30T12:57:27.648Z,12.10
2022-11-30T13:00:21.653Z,12.33
2022-11-30T13:03:25.647Z,13.40
2022-11-30T13:06:00.807Z,15.47
2022-11-30T13:09:11.949Z,15.03
2022-11-30T13:11:43.255Z,14.13
2022-11-30T13:14:22.948Z,11.67
2022-11-30T13:17:00.579Z,14.40
2022-11-30T13:20:04.691Z,13.17
2022-11-30T13:22:46.537Z,13.47
2022-11-30T13:26:06.229Z,13.13
2022-11-30T13:28:35.029Z,11.53
2022-11-30T13:31:17.824Z,12.23
2022-11-30T13:33:50.029Z,11.40
2022-11-30T13:36:32.092Z,13.40
2022-11-30T13:39:27.124Z,13.17
2022-11-30T13:42:05.812Z,13.73
2022-11-30T13:44:41.309Z,14.00
2022-11-30T13:47:31.594Z,17.30
2022-11-30T13:50:05.392Z,18.97
2022-11-30T13:53:01.769Z,19.37
2022-11-30T13:55:59.840Z,22.03
2022-11-30T13:58:27.734Z,17.00
2022-11-30T14:01:03.759Z,18.17
2022-11-30T14:03:32.787Z,18.87
2022-11-30T14:06:04.810Z,23.07
2022-11-30T14:08:38.020Z,16.57
2022-11-30T14:11:36.800Z,16.43
2022-11-30T14:14:45.652Z,16.30
2022-11-30T14:17:23.918Z,17.10
2022-11-30T14:19:55.668Z,16.77
2022-11-30T14:22:23.510Z,15.13
2022-11-30T14:24:50.689Z,18.50
2022-11-30T14:27:25.062Z,16.00
2022-11-30T14:29:58.019Z,17.67
2022-11-30T14:32:42.211Z,16.23
2022-11-30T14:35:16.992Z,15.60
2022-11-30T14:37:55.564Z,16.47
2022-11-30T14:40:27.303Z,16.57
2022-11-30T14:42:58.284Z,18.70
2022-11-30T14:45:31.685Z,16.57
2022-11-30T14:48:14.409Z,14.13
2022-11-30T14:50:51.101Z,14.47
2022-11-30T14:53:54.052Z,13.60
2022-11-30T14:56:48.185Z,16.27
2022-11-30T14:59:30.020Z,16.90
2022-11-30T15:02:00.848Z,16.63
2022-11-30T15:04:29.403Z,16.53
2022-11-30T15:06:57.086Z,14.83
2022-11-30T15:09:32.414Z,16.27
2022-11-30T15:12:00.201Z,15.30
2022-11-30T15:14:27.213Z,19.20
2022-11-30T15:16:57.202Z,15.47
2022-11-30T15:19:31.205Z,19.30
2022-11-30T15:21:58.981Z,15.17
2022-11-30T15:24:28.243Z,17.50
2022-11-30T15:27:14.178Z,16.70
2022-11-30T15:29:58.834Z,15.53
2022-11-30T15:32:26.592Z,16.73
2022-11-30T15:34:57.638Z,18.43
2022-11-30T15:37:34.173Z,17.03
2022-11-30T15:40:05.314Z,16.97
2022-11-30T15:42:40.008Z,16.57
2022-11-30T15:45:27.836Z,15.93
2022-11-30T15:47:56.739Z,16.40
2022-11-30T15:50:26.535Z,17.90
2022-11-30T15:52:59.144Z,18.33
2022-11-30T15:55:45.278Z,19.00
2022-11-30T15:58:45.648Z,16.73
2022-11-30T16:01:24.654Z,16.37
2022-11-30T16:04:07.963Z,17.07
2022-11-30T16:06:47.205Z,16.47
2022-11-30T16:09:24.537Z,16.93
2022-11-30T16:11:57.248Z,16.77
2022-11-30T16:14:24.460Z,16.33
2022-11-30T16:16:53.793Z,15.17
2022-11-30T16:19:21.197Z,14.00
2022-11-30T16:21:49.695Z,13.93
2022-11-30T16:24:16.904Z,12.53
2022-11-30T16:26:52.284Z,13.43
2022-11-30T16:29:20.168Z,13.63
2022-11-30T16:31:47.270Z,15.77
2022-11-30T16:34:14.312Z,14.77
2022-11-30T16:36:41.210Z,17.27
2022-11-30T16:39:12.490Z,17.43
2022-11-30T16:41:39.637Z,14.77
2022-11-30T16:44:13.831Z,14.13
2022-11-30T16:46:40.748Z,13.50
2022-11-30T16:49:07.625Z,14.80
2022-11-30T16:51:34.801Z,16.33
2022-11-30T16:54:01.910Z,15.87
2022-11-30T16:56:28.990Z,18.10
2022-11-30T16:58:55.906Z,15.53
2022-11-30T17:01:35.761Z,15.77
2022-11-30T17:04:12.969Z,15.27
2022-11-30T17:06:39.863Z,16.63
2022-11-30T17:09:13.524Z,17.90
2022-11-30T17:11:41.311Z,18.50
2022-11-30T17:14:10.839Z,19.67
2022-11-30T17:16:37.776Z,17.07
2022-11-30T17:19:05.002Z,19.80
2022-11-30T17:21:35.891Z,18.83
2022-11-30T17:24:03.321Z,12.80
2022-11-30T17:26:30.235Z,11.33
2022-11-30T17:28:57.169Z,12.07
2022-11-30T17:31:24.699Z,15.20
2022-11-30T17:33:52.846Z,14.27
2022-11-30T17:36:19.824Z,12.10
2022-11-30T17:38:46.878Z,13.67
2022-11-30T17:41:19.241Z,13.27
2022-11-30T17:43:47.728Z,12.97
2022-11-30T17:46:17.934Z,14.27
2022-11-30T17:48:45.401Z,13.63
2022-11-30T17:51:13.035Z,12.97
2022-11-30T17:53:41.485Z,12.27
2022-11-30T17:56:15.042Z,12.93
2022-11-30T17:58:44.640Z,12.87
2022-11-30T18:01:23.640Z,13.73
2022-11-30T18:03:51.446Z,12.03
2022-11-30T18:06:19.182Z,12.43
2022-11-30T18:08:46.504Z,11.40
2022-11-30T18:11:20.512Z,10.07
2022-11-30T18:13:50.086Z,10.77
2022-11-30T18:16:24.640Z,11.73
2022-11-30T18:18:52.204Z,13.33
2022-11-30T18:21:21.957Z,11.87
2022-11-30T18:23:49.890Z,13.00
2022-11-30T18:26:20.822Z,11.80
2022-11-30T18:28:59.345Z,13.27
2022-11-30T18:31:28.102Z,12.90
2022-11-30T18:34:00.086Z,12.30
2022-11-30T18:36:27.974Z,11.90
2022-11-30T18:38:55.467Z,12.13
2022-11-30T18:41:24.188Z,10.90
2022-11-30T18:43:51.082Z,10.83
2022-11-30T18:46:18.007Z,13.33
2022-11-30T18:48:50.272Z,13.53
2022-11-30T18:51:27.243Z,11.87
2022-11-30T18:54:00.407Z,11.33
2022-11-30T18:56:31.735Z,12.83
2022-11-30T18:59:02.743Z,12.80
2022-11-30T19:01:30.741Z,13.97
2022-11-30T19:04:02.403Z,13.50
2022-11-30T19:06:32.729Z,12.50
2022-11-30T19:09:09.242Z,12.23
2022-11-30T19:11:37.934Z,13.00
2022-11-30T19:14:05.437Z,11.13
2022-11-30T19:16:36.941Z,12.17
2022-11-30T19:19:08.397Z,11.70
2022-11-30T19:21:35.576Z,11.03
2022-11-30T19:24:02.613Z,11.30
2022-11-30T19:26:29.706Z,12.60
2022-11-30T19:28:57.890Z,14.73
2022-11-30T19:31:25.414Z,12.87
2022-11-30T19:33:55.073Z,14.30
2022-11-30T19:36:26.730Z,14.57
2022-11-30T19:38:54.389Z,13.80
2022-11-30T19:41:22.179Z,13.33
2022-11-30T19:44:01.046Z,12.20
2022-11-30T19:46:31.795Z,13.37
2022-11-30T19:49:01.352Z,13.03
2022-11-30T19:51:30.644Z,14.67
2022-11-30T19:53:59.334Z,14.83
2022-11-30T19:56:28.936Z,15.83
2022-11-30T19:59:03.776Z,16.77
2022-11-30T20:01:32.080Z,15.67
2022-11-30T20:03:59.331Z,11.03
2022-11-30T20:06:37.741Z,10.13
2022-11-30T20:09:07.524Z,12.67
2022-11-30T20:11:34.739Z,13.57
2022-11-30T20:14:01.836Z,12.77
2022-11-30T20:16:29.349Z,13.23
2022-11-30T20:19:01.876Z,13.43
2022-11-30T20:21:35.132Z,12.70
2022-11-30T20:24:07.140Z,12.27
2022-11-30T20:26:40.760Z,11.27
2022-11-30T20:29:12.684Z,11.20
2022-11-30T20:31:40.564Z,13.60
2022-11-30T20:34:08.376Z,14.63
2022-11-30T20:36:35.713Z,16.00
2022-11-30T20:39:03.010Z,14.53
2022-11-30T20:41:29.921Z,12.87
2022-11-30T20:43:57.111Z,11.53
2022-11-30T20:46:42.332Z,11.23
2022-11-30T20:49:17.673Z,11.80
2022-11-30T20:51:45.694Z,14.00
2022-11-30T20:54:12.977Z,14.00
2022-11-30T20:56:40.772Z,13.00
2022-11-30T20:59:15.058Z,11.70
2022-11-30T21:01:44.452Z,10.90
2022-11-30T21:04:11.708Z,10.60
2022-11-30T21:06:38.845Z,11.63
2022-11-30T21:09:05.723Z,10.67
2022-11-30T21:11:32.599Z,9.80
2022-11-30T21:13:59.623Z,10.73
2022-11-30T21:16:29.649Z,12.30
2022-11-30T21:19:01.054Z,10.67
2022-11-30T21:21:31.761Z,9.43
2022-11-30T21:24:01.495Z,10.03
2022-11-30T21:26:37.940Z,10.67
2022-11-30T21:29:11.717Z,10.60
2022-11-30T21:31:38.920Z,11.30
2022-11-30T21:34:06.081Z,9.83
2022-11-30T21:36:33.234Z,10.10
2022-11-30T21:39:06.831Z,9.80
2022-11-30T21:41:36.644Z,9.60
2022-11-30T21:44:06.608Z,9.73
2022-11-30T21:46:33.915Z,9.17
2022-11-30T21:49:01.325Z,10.03
2022-11-30T21:51:29.814Z,9.30
2022-11-30T21:54:00.241Z,9.40
2022-11-30T21:56:30.583Z,9.57
2022-11-30T21:58:58.150Z,9.13
2022-11-30T22:01:31.750Z,9.00
2022-11-30T22:03:59.963Z,10.23
2022-11-30T22:06:29.044Z,9.17
2022-11-30T22:09:03.669Z,9.87
2022-11-30T22:11:31.417Z,9.27
2022-11-30T22:13:58.473Z,9.00
2022-11-30T22:16:34.025Z,9.27
2022-11-30T22:19:03.596Z,8.67
2022-11-30T22:21:31.051Z,9.20
2022-11-30T22:24:00.791Z,8.33
2022-11-30T22:26:31.486Z,8.87
2022-11-30T22:29:02.067Z,9.23
2022-11-30T22:31:32.775Z,10.60
2022-11-30T22:34:00.449Z,10.97
2022-11-30T22:36:30.258Z,9.77
2022-11-30T22:39:00.798Z,10.00
2022-11-30T22:41:28.758Z,9.53
2022-11-30T22:43:57.717Z,9.73
2022-11-30T22:46:31.126Z,10.00
2022-11-30T22:49:04.457Z,9.53
2022-11-30T22:51:33.684Z,9.73
2022-11-30T22:54:01.457Z,9.70
2022-11-30T22:56:35.548Z,11.13
2022-11-30T22:59:03.728Z,10.60
2022-11-30T23:01:38.112Z,11.43
2022-11-30T23:04:14.421Z,10.40
2022-11-30T23:06:43.063Z,11.40
2022-11-30T23:09:16.125Z,10.03
2022-11-30T23:11:43.291Z,10.77
2022-11-30T23:14:12.109Z,10.40
2022-11-30T23:16:39.996Z,9.57
2022-11-30T23:19:07.083Z,11.03
2022-11-30T23:21:41.490Z,10.57
2022-11-30T23:24:15.164Z,10.07
2022-11-30T23:26:42.861Z,10.20
2022-11-30T23:29:13.865Z,9.93
2022-11-30T23:31:42.630Z,9.73
2022-11-30T23:34:16.749Z,9.83
2022-11-30T23:36:43.818Z,9.70
2022-11-30T23:39:14.818Z,10.83
2022-11-30T23:41:42.033Z,10.17
2022-11-30T23:44:10.409Z,9.53
2022-11-30T23:46:37.789Z,9.33
2022-11-30T23:49:05.099Z,10.20
2022-11-30T23:51:32.031Z,10.03
2022-11-30T23:53:58.950Z,9.63
2022-11-30T23:56:25.941Z,10.37
2022-11-30T23:58:52.978Z,11.50
